Latest Weather Observations for Yanakie

IDV60801

Issued at 5:32 pm EST Monday 27 June 2016 (issued every 30 minutes, with the page automatically refreshed every 10 minutes)

About weather observations | Map of weather stations | Latest weather observations for VIC | Other Formats
Station Details ID: 085301 Name: YANAKIE Lat: -38.81 Lon: 146.19 Height: 13.3 m
Data from the previous 72 hours. | See also: Recent months at Yanakie
Date/Time
EST
Temp
°C
App
Temp
°C
Dew
Point
°C
Rel
Hum
%
Delta-T
°C
Wind Press
QNH
hPa
Press
MSL
hPa
Rain since
9am
mm
Dir  Spd
km/h
Gust
km/h
Spd
kts
Gust
kts
27/05:30pm 9.3 5.5 7.7 90 0.8 NW 17 24 9 13 1017.1 1017.1 0.2
27/05:00pm 9.1 5.7 7.5 90 0.8 NW 15 19 8 10 1016.6 1016.6 0.0
27/04:30pm 9.6 5.3 7.7 88 0.9 NW 20 28 11 15 1016.6 1016.6 0.0
27/04:00pm 9.8 5.5 7.7 87 1.0 NW 20 28 11 15 1016.4 1016.4 0.0
27/03:30pm 10.0 5.8 8.1 88 0.9 NW 20 28 11 15 1016.2 1016.2 0.0
27/03:00pm 10.3 5.5 7.5 83 1.3 WNW 22 33 12 18 1016.1 1016.1 0.0
27/02:30pm 10.7 5.5 7.4 80 1.6 WNW 24 33 13 18 1015.7 1015.7 0.0
27/02:00pm 10.6 5.4 7.3 80 1.6 WNW 24 33 13 18 1015.6 1015.6 0.0
27/01:30pm 10.7 4.7 7.0 78 1.8 NW 28 39 15 21 1015.5 1015.5 0.0
27/01:00pm 11.4 5.1 7.3 76 2.0 WNW 30 41 16 22 1015.3 1015.3 0.0
27/12:30pm 11.0 5.8 7.1 77 1.9 NW 24 35 13 19 1015.5 1015.5 0.0
27/12:00pm 10.9 4.5 6.8 76 1.9 NW 30 39 16 21 1015.9 1015.9 0.0
27/11:30am 10.3 4.5 6.3 76 1.9 NW 26 37 14 20 1016.0 1016.0 0.0
27/11:00am 9.5 4.1 6.2 80 1.5 NW 24 32 13 17 1016.2 1016.2 0.0
27/10:30am 9.2 3.3 5.8 79 1.6 NW 26 37 14 20 1016.3 1016.3 0.0
27/10:00am 8.9 3.3 5.5 79 1.5 NW 24 35 13 19 1016.1 1016.1 0.0
27/09:30am 8.4 2.7 5.0 79 1.5 NW 24 30 13 16 1016.2 1016.2 0.0
27/09:00am 8.3 2.5 4.3 76 1.7 NW 24 33 13 18 1016.0 1016.0 0.0
27/08:30am 7.8 2.7 4.0 77 1.6 NW 20 28 11 15 1015.9 1015.9 0.0
27/08:00am 7.5 2.4 3.9 78 1.5 NW 20 28 11 15 1015.7 1015.7 0.0
27/07:30am 7.7 2.1 3.4 74 1.8 NW 22 33 12 18 1015.4 1015.4 0.0
27/07:00am 7.6 1.2 3.1 73 1.9 NW 26 37 14 20 1015.0 1015.0 0.0
27/06:30am 7.2 1.9 2.9 74 1.8 NW 20 28 11 15 1014.8 1014.8 0.0
27/06:00am 7.3 1.6 2.6 72 2.0 NW 22 32 12 17 1014.4 1014.4 0.0
27/05:30am 7.0 2.9 2.3 72 1.9 NNW 13 20 7 11 1014.5 1014.5 0.0
27/05:00am 6.9 2.0 2.2 72 1.9 NNW 17 26 9 14 1014.4 1014.4 0.0
27/04:30am 6.5 2.0 2.0 73 1.8 NNW 15 22 8 12 1014.5 1014.5 0.0
27/04:00am 6.1 1.5 1.6 73 1.8 NNW 15 22 8 12 1014.6 1014.6 0.0
27/03:30am 6.2 0.8 1.5 72 1.9 NW 19 26 10 14 1014.6 1014.6 0.0
27/03:00am 6.0 0.6 1.3 72 1.9 NNW 19 26 10 14 1014.6 1014.6 0.0
27/02:30am 6.1 1.1 1.2 71 1.9 NNW 17 26 9 14 1014.7 1014.7 0.0
27/02:00am 6.0 0.6 1.3 72 1.9 NNW 19 26 10 14 1015.0 1015.0 0.0
27/01:30am 6.0 1.0 1.3 72 1.9 NNW 17 24 9 13 1015.3 1015.3 0.0
27/01:00am 6.0 0.6 1.5 73 1.8 NW 19 24 10 13 1015.2 1015.2 0.0
27/12:30am 5.9 1.7 1.4 73 1.8 NNW 13 17 7 9 1015.4 1015.4 0.0
27/12:00am 6.0 1.0 1.3 72 1.9 NW 17 22 9 12 1015.5 1015.5 0.0
 
Date/Time
EST
Temp
°C
App
Temp
°C
Dew
Point
°C
Rel
Hum
%
Delta-T
°C
Wind Press
QNH
hPa
Press
MSL
hPa
Rain since
9am
mm
Dir  Spd
km/h
Gust
km/h
Spd
kts
Gust
kts
26/11:30pm 6.4 1.0 1.3 70 2.0 NW 19 24 10 13 1015.4 1015.4 0.0
26/11:00pm 6.5 0.9 1.4 70 2.0 NW 20 30 11 16 1015.6 1015.6 0.0
26/10:30pm 6.7 1.2 1.6 70 2.1 NW 20 30 11 16 1015.5 1015.5 0.0
26/10:00pm 6.7 1.3 1.4 69 2.1 NNW 19 28 10 15 1015.8 1015.8 0.0
26/09:30pm 6.8 1.4 1.5 69 2.1 NNW 19 26 10 14 1015.8 1015.8 0.0
26/09:00pm 6.8 1.8 1.5 69 2.1 NNW 17 24 9 13 1016.0 1016.0 0.0
26/08:30pm 7.1 1.8 1.6 68 2.2 NNW 19 24 10 13 1016.1 1016.1 0.0
26/08:00pm 7.3 2.0 1.6 67 2.3 NNW 19 26 10 14 1016.2 1016.2 0.0
26/07:30pm 7.0 2.8 1.9 70 2.1 NW 13 19 7 10 1016.3 1016.3 0.0
26/07:00pm 6.7 2.9 2.0 72 1.9 NW 11 17 6 9 1016.3 1016.3 0.0
26/06:30pm 7.7 2.8 2.2 68 2.3 NW 17 26 9 14 1016.3 1016.3 0.0
26/06:00pm 7.5 3.5 2.8 72 2.0 NW 13 19 7 10 1016.4 1016.4 0.0
26/05:30pm 8.4 3.1 3.1 69 2.3 NW 20 30 11 16 1016.4 1016.4 0.0
26/05:00pm 8.6 3.6 3.8 72 2.1 WNW 19 28 10 15 1016.4 1016.4 0.0
26/04:30pm 8.4 5.1 4.6 77 1.7 WNW 11 15 6 8 1016.3 1016.3 0.0
26/04:00pm 9.5 5.8 4.5 71 2.2 WNW 13 17 7 9 1016.4 1016.4 0.0
26/03:30pm 10.2 5.4 4.8 69 2.4 WNW 19 26 10 14 1016.5 1016.5 0.0
26/03:00pm 10.5 5.1 4.6 67 2.6 NW 22 32 12 17 1016.5 1016.5 0.0
26/02:30pm 11.0 6.3 5.3 68 2.6 WNW 19 26 10 14 1016.4 1016.4 0.0
26/02:00pm 11.0 5.6 4.7 65 2.8 NW 22 28 12 15 1016.6 1016.6 0.0
26/01:30pm 10.9 5.3 5.2 68 2.6 NW 24 33 13 18 1016.8 1016.8 0.0
26/01:00pm 11.3 6.6 6.2 71 2.4 NW 20 26 11 14 1017.1 1017.1 0.0
26/12:30pm 11.1 5.9 5.6 69 2.5 NW 22 32 12 17 1017.4 1017.4 0.0
26/12:00pm 10.8 5.7 5.8 71 2.3 NW 22 28 12 15 1017.9 1017.9 0.0
26/11:30am 10.5 5.8 6.1 74 2.0 NW 20 26 11 14 1018.6 1018.6 0.0
26/11:00am 10.1 5.5 5.7 74 2.0 NW 19 24 10 13 1019.1 1019.1 0.0
26/10:30am 9.7 4.8 5.3 74 2.0 NW 20 28 11 15 1019.6 1019.6 0.0
26/10:00am 9.2 4.5 5.2 76 1.8 NW 19 26 10 14 1019.7 1019.7 0.0
26/09:30am 8.5 2.8 4.9 78 1.6 WNW 24 30 13 16 1019.7 1019.7 0.0
26/09:00am 8.3 3.4 4.9 79 1.5 WNW 20 30 11 16 1019.6 1019.6 1.4
26/08:30am 8.0 6.0 4.2 77 1.7 NE 4 7 2 4 1019.8 1019.8 1.4
26/08:00am 6.9 3.5 3.9 81 1.3 NW 11 13 6 7 1020.0 1020.0 1.4
26/07:30am 6.4 3.9 3.9 84 1.1 NNW 6 13 3 7 1019.9 1019.9 1.4
26/07:00am 6.3 2.8 3.6 83 1.1 NW 11 17 6 9 1019.8 1019.8 1.4
26/06:30am 7.2 2.3 4.2 81 1.3 NW 19 26 10 14 1019.5 1019.5 1.4
26/06:00am 7.4 2.9 4.4 81 1.3 WNW 17 22 9 12 1019.4 1019.4 1.4
26/05:30am 7.0 3.7 4.5 84 1.1 WNW 11 17 6 9 1019.1 1019.1 1.4
26/05:00am 6.8 4.3 4.5 85 1.0 NW 7 7 4 4 1019.4 1019.4 1.4
26/04:30am 8.2 3.5 5.1 81 1.4 NW 19 26 10 14 1019.5 1019.5 1.4
26/04:00am 8.3 3.5 5.4 82 1.3 NW 20 28 11 15 1019.6 1019.6 1.4
26/03:30am 8.4 4.5 5.5 82 1.3 NW 15 24 8 13 1019.7 1019.7 1.4
26/03:00am 8.3 4.6 6.1 86 1.0 NW 15 19 8 10 1019.9 1019.9 1.4
26/02:30am 8.3 4.2 6.1 86 1.0 NW 17 22 9 12 1019.7 1019.7 1.4
26/02:00am 8.3 3.8 6.3 87 0.9 NW 19 26 10 14 1019.8 1019.8 1.4
26/01:30am 8.5 4.5 6.6 88 0.9 NW 17 22 9 12 1020.1 1020.1 1.4
26/01:00am 8.5 4.5 6.5 87 0.9 NW 17 22 9 12 1020.2 1020.2 1.4
26/12:30am 8.4 5.5 6.5 88 0.9 NW 11 15 6 8 1020.2 1020.2 1.4
26/12:00am 8.4 5.2 6.7 89 0.8 NW 13 19 7 10 1020.4 1020.4 1.4
 
Date/Time
EST
Temp
°C
App
Temp
°C
Dew
Point
°C
Rel
Hum
%
Delta-T
°C
Wind Press
QNH
hPa
Press
MSL
hPa
Rain since
9am
mm
Dir  Spd
km/h
Gust
km/h
Spd
kts
Gust
kts
25/11:30pm 8.4 4.8 6.7 89 0.8 NW 15 22 8 12 1020.6 1020.6 1.4
25/11:00pm 8.3 5.1 6.8 90 0.7 NW 13 19 7 10 1020.8 1020.8 1.2
25/10:30pm 7.9 5.0 6.5 91 0.6 NW 11 15 6 8 1021.0 1021.0 1.2
25/10:00pm 8.2 4.6 6.8 91 0.6 WNW 15 20 8 11 1021.2 1021.2 1.2
25/09:30pm 8.2 4.5 6.5 89 0.8 WNW 15 22 8 12 1021.2 1021.2 1.0
25/09:00pm 7.5 4.5 5.8 89 0.8 NW 11 17 6 9 1021.0 1021.0 1.0
25/08:30pm 8.3 4.6 6.4 88 0.9 NW 15 20 8 11 1021.2 1021.2 1.0
25/08:00pm 8.3 4.7 6.6 89 0.8 NW 15 24 8 13 1021.5 1021.5 1.0
25/07:30pm 7.8 4.4 6.1 89 0.8 NW 13 19 7 10 1021.5 1021.5 1.0
25/07:00pm 8.2 4.5 6.2 87 0.9 NW 15 19 8 10 1021.5 1021.5 1.0
25/06:30pm 8.5 4.5 6.6 88 0.9 WNW 17 24 9 13 1021.4 1021.4 1.0
25/06:00pm 8.7 4.7 6.8 88 0.9 NW 17 22 9 12 1021.3 1021.3 1.0
25/05:30pm 8.9 6.1 6.9 87 0.9 NW 11 13 6 7 1021.3 1021.3 1.0
25/05:00pm 9.7 7.0 7.3 85 1.1 WNW 11 13 6 7 1021.1 1021.1 1.0
25/04:30pm 10.1 7.4 7.5 84 1.2 WNW 11 15 6 8 1021.0 1021.0 1.0
25/04:00pm 10.6 7.6 7.7 82 1.4 WNW 13 17 7 9 1021.0 1021.0 1.0
25/03:30pm 10.7 6.9 7.6 81 1.5 W 17 32 9 17 1020.9 1020.9 1.0
25/03:00pm 11.0 7.7 6.6 74 2.1 W 13 17 7 9 1020.7 1020.7 1.0
25/02:30pm 11.7 7.7 6.8 72 2.3 W 17 22 9 12 1020.7 1020.7 1.0
25/02:00pm 11.7 7.6 6.0 68 2.7 WSW 17 24 9 13 1020.7 1020.7 1.0
25/01:30pm 11.6 7.4 5.7 67 2.7 SW 17 22 9 12 1020.8 1020.8 1.0
25/01:00pm 11.8 7.5 5.4 65 2.9 WSW 17 22 9 12 1020.9 1020.9 1.0
25/12:30pm 11.1 8.1 7.6 79 1.7 W 13 19 7 10 1021.0 1021.0 1.0
25/12:00pm 10.2 7.0 6.9 80 1.6 NW 13 20 7 11 1021.2 1021.2 1.0
25/11:30am 11.1 6.5 5.8 70 2.5 SW 19 24 10 13 1021.4 1021.4 1.0
25/11:00am 10.8 6.2 5.6 70 2.4 SW 19 24 10 13 1021.4 1021.4 1.0
25/10:30am 9.8 5.2 5.6 75 1.9 SW 19 24 10 13 1021.3 1021.3 1.0
25/10:00am 8.9 4.7 5.8 81 1.4 SW 17 24 9 13 1021.2 1021.2 1.0
25/09:30am 8.5 5.1 6.1 85 1.1 W 13 20 7 11 1020.8 1020.8 0.4
25/09:00am 8.7 6.0 5.8 82 1.3 WNW 9 13 5 7 1020.4 1020.4 13.6
25/08:30am 7.1 3.8 4.6 84 1.1 WSW 11 19 6 10 1020.1 1020.1 13.6
25/08:00am 7.4 2.5 5.0 85 1.1 SW 20 44 11 24 1020.2 1020.2 12.8
25/07:30am 8.6 3.6 3.8 72 2.1 SW 19 28 10 15 1019.7 1019.7 12.4
25/07:00am 7.8 2.8 4.4 79 1.5 WSW 20 30 11 16 1019.4 1019.4 12.4
25/06:30am 8.6 3.3 3.2 69 2.3 SW 20 28 11 15 1019.0 1019.0 12.4
25/06:00am 8.6 3.0 3.2 69 2.3 SW 22 32 12 17 1018.5 1018.5 12.4
25/05:30am 8.1 2.6 4.1 76 1.7 WSW 22 33 12 18 1018.2 1018.2 12.4
25/05:00am 6.6 3.0 3.2 79 1.4 W 11 17 6 9 1017.8 1017.8 12.4
25/04:30am 8.0 3.5 4.0 76 1.7 SW 17 22 9 12 1017.6 1017.6 12.4
25/04:00am 8.8 3.5 2.8 66 2.5 SW 20 30 11 16 1017.4 1017.4 12.2
25/03:30am 8.2 2.4 2.4 67 2.4 SW 22 30 12 16 1017.0 1017.0 12.2
25/03:00am 8.6 1.5 1.5 61 2.9 SW 28 37 15 20 1016.9 1016.9 12.2
25/02:30am 8.4 1.3 1.1 60 3.0 SW 28 41 15 22 1016.7 1016.7 12.2
25/02:00am 8.5 1.6 2.3 65 2.6 SW 28 41 15 22 1016.4 1016.4 12.2
25/01:30am 8.0 1.0 2.0 66 2.5 SW 28 37 15 20 1016.0 1016.0 12.2
25/01:00am 8.1 1.7 3.2 71 2.1 SW 26 33 14 18 1015.8 1015.8 12.2
25/12:30am 7.7 1.1 1.8 66 2.4 SW 26 35 14 19 1015.5 1015.5 12.2
25/12:00am 7.7 0.5 3.2 73 1.9 SW 30 43 16 23 1015.1 1015.1 12.2
 
Date/Time
EST
Temp
°C
App
Temp
°C
Dew
Point
°C
Rel
Hum
%
Delta-T
°C
Wind Press
QNH
hPa
Press
MSL
hPa
Rain since
9am
mm
Dir  Spd
km/h
Gust
km/h
Spd
kts
Gust
kts
24/11:30pm 8.0 0.5 3.3 72 2.0 SW 32 44 17 24 1014.6 1014.6 12.2
24/11:00pm 8.0 1.2 3.1 71 2.1 SW 28 37 15 20 1014.2 1014.2 12.2
24/10:42pm 7.5 0.1 4.1 79 1.5 WSW 32 52 17 28 1014.3 1014.3 12.2
24/10:30pm 7.6 2.5 4.0 78 1.6 WSW 20 37 11 20 1013.9 1013.9 11.8
24/10:05pm 6.7 -0.4 3.7 81 1.3 WSW 30 48 16 26 1013.7 1013.7 11.8
24/10:00pm 6.4 -0.9 2.7 77 1.5 SW 30 48 16 26 1013.7 1013.7 11.8
24/09:55pm 7.2 2.3 4.2 81 1.3 WSW 19 48 10 26 1013.7 1013.7 11.4
24/09:30pm 4.9 1.3 3.2 89 0.7 WSW 11 15 6 8 1013.0 1013.0 11.4
24/09:00pm 4.5 -2.4 2.7 88 0.7 WSW 28 44 15 24 1013.2 1013.2 9.8
24/08:30pm 6.3 0.7 3.5 82 1.2 SSW 22 33 12 18 1012.4 1012.4 6.2
24/08:00pm 7.5 -0.3 2.0 68 2.3 SW 32 50 17 27 1011.6 1011.6 6.2
24/07:55pm 7.7 0.9 3.2 73 1.9 SW 28 48 15 26 1011.6 1011.6 6.2
24/07:30pm 7.8 0.1 2.3 68 2.3 SW 32 41 17 22 1010.8 1010.8 6.2
24/07:05pm 6.9 -1.6 3.2 77 1.6 SSW 37 56 20 30 1010.4 1010.4 6.2
24/07:00pm 7.1 -2.2 3.0 75 1.7 SSW 41 56 22 30 1010.3 1010.3 6.2
24/06:55pm 7.7 -1.8 4.1 78 1.6 SSW 43 61 23 33 1010.2 1010.2 6.2
24/06:45pm 8.3 0.9 4.1 75 1.8 WSW 32 61 17 33 1010.0 1010.0 6.2
24/06:43pm 8.4 1.7 3.7 72 2.0 W 28 54 15 29 1009.6 1009.6 6.2
24/06:30pm 8.1 2.1 3.6 73 1.9 W 24 33 13 18 1009.2 1009.2 6.2
24/06:00pm 8.5 2.0 2.9 68 2.4 SW 26 37 14 20 1008.8 1008.8 6.2

Other Formats:

Comma delimited format used in spreadsheet applications
http://www.bom.gov.au/fwo/IDV60801/IDV60801.94911.axf

JavaScript Object Notation format (JSON) in row-major order
http://www.bom.gov.au/fwo/IDV60801/IDV60801.94911.json